Time;durP1;ratioP1;P1;durP2;ratioP2;P2;SDS_P1;SDS_P2;PMS_P1;PMS_P2;Temp;Humidity;BMP_temperature;BMP_pressure;BME280_temperature;BME280_humidity;BME280_pressure;Samples;Min_cycle;Max_cycle;Signal;HPM_P1;HPM_P2
2022/06/25 00:01:15;;;;;;;6.70;4.22;;;;;;;18.70;nan;-24337.72;5058294;28;20210;-60
2022/06/25 00:03:43;;;;;;;6.75;4.10;;;;;;;18.82;nan;-24341.03;5058390;28;20181;-59
2022/06/25 00:06:09;;;;;;;9.07;4.68;;;;;;;18.79;nan;-24340.06;5057329;28;20228;-59
2022/06/25 00:08:36;;;;;;;6.00;4.10;;;;;;;18.38;nan;-24328.94;5053829;28;20167;-59
2022/06/25 00:11:01;;;;;;;6.45;4.30;;;;;;;18.63;nan;-24335.63;5055231;28;20178;-58
2022/06/25 00:13:27;;;;;;;9.25;4.68;;;;;;;18.30;nan;-24326.56;5054976;28;20207;-57
2022/06/25 00:15:53;;;;;;;5.63;3.75;;;;;;;18.24;nan;-24325.03;5054688;28;20171;-60
2022/06/25 00:18:18;;;;;;;6.72;4.60;;;;;;;18.27;nan;-24325.72;5054684;28;20185;-59
2022/06/25 00:20:45;;;;;;;5.85;4.28;;;;;;;14.26;nan;-24214.84;5054824;28;20173;-59
2022/06/25 00:23:11;;;;;;;7.20;4.60;;;;;;;18.60;nan;-24334.78;5054387;28;20178;-61
2022/06/25 00:25:36;;;;;;;6.32;4.10;;;;;;;18.54;nan;-24333.25;5054156;28;20248;-59
2022/06/25 00:28:02;;;;;;;5.70;3.83;;;;;;;18.60;nan;-24334.78;5054750;28;20183;-61
2022/06/25 00:30:28;;;;;;;6.30;4.57;;;;;;;18.88;nan;-24342.72;5053907;28;20178;-59
2022/06/25 00:32:54;;;;;;;7.13;4.50;;;;;;;18.66;nan;-24336.59;5054518;28;20325;-58
2022/06/25 00:35:20;;;;;;;7.65;5.03;;;;;;;18.64;nan;-24335.91;5053837;28;20668;-57
2022/06/25 00:37:45;;;;;;;6.65;4.35;;;;;;;18.25;nan;-24325.31;5053371;28;20259;-59
2022/06/25 00:40:11;;;;;;;7.35;4.63;;;;;;;18.16;nan;-24322.81;5054137;28;20592;-57
2022/06/25 00:42:37;;;;;;;7.55;4.63;;;;;;;18.35;nan;-24327.94;5054296;28;20175;-58
2022/06/25 00:45:03;;;;;;;8.82;5.20;;;;;;;18.44;nan;-24330.47;5053933;28;20212;-57
2022/06/25 00:47:28;;;;;;;10.23;4.75;;;;;;;18.23;nan;-24324.59;5054102;28;20558;-57
2022/06/25 00:49:54;;;;;;;7.63;4.65;;;;;;;18.63;nan;-24335.75;5054009;28;20659;-58
2022/06/25 00:52:22;;;;;;;8.75;5.10;;;;;;;18.61;nan;-24335.06;5054021;28;20600;-57
2022/06/25 00:55:11;;;;;;;7.30;4.82;;;;;;;18.64;nan;-24335.91;5052650;28;20260;-59
2022/06/25 00:57:39;;;;;;;6.75;4.25;;;;;;;18.37;nan;-24328.50;5051804;28;20195;-57
2022/06/25 01:00:11;;;;;;;7.63;4.65;;;;;;;18.39;nan;-24329.22;5051713;28;20237;-59
2022/06/25 01:02:39;;;;;;;6.53;4.38;;;;;;;18.45;nan;-24330.88;5052244;28;20186;-58
2022/06/25 01:05:09;;;;;;;7.05;4.60;;;;;;;18.48;nan;-24331.72;5051769;28;20240;-60
2022/06/25 01:07:36;;;;;;;6.65;4.53;;;;;;;18.70;nan;-24337.56;5052334;28;20171;-57
2022/06/25 01:10:02;;;;;;;8.05;4.38;;;;;;;18.53;nan;-24332.97;5052245;28;20638;-58
2022/06/25 01:12:28;;;;;;;7.07;4.45;;;;;;;17.98;nan;-24317.91;5051552;28;20167;-61
2022/06/25 01:15:04;;;;;;;6.88;4.38;;;;;;;17.81;nan;-24313.19;5051287;28;20207;-59
2022/06/25 01:17:30;;;;;;;5.68;3.95;;;;;;;18.62;nan;-24335.34;5050930;28;20594;-58
2022/06/25 01:19:56;;;;;;;5.70;3.88;;;;;;;18.17;nan;-24323.06;5051698;28;20183;-57
2022/06/25 01:22:21;;;;;;;7.88;4.32;;;;;;;18.60;nan;-24334.78;5054142;28;20187;-58
2022/06/25 01:24:47;;;;;;;6.43;4.35;;;;;;;18.54;nan;-24333.38;5051729;28;20598;-58
2022/06/25 01:27:14;;;;;;;6.68;4.32;;;;;;;18.30;nan;-24326.56;5052176;28;20646;-59
2022/06/25 01:29:40;;;;;;;9.88;4.25;;;;;;;18.52;nan;-24332.81;5052286;28;20175;-58
2022/06/25 01:32:06;;;;;;;8.75;4.55;;;;;;;18.46;nan;-24331.16;5051102;28;20224;-58
2022/06/25 01:34:31;;;;;;;6.47;4.53;;;;;;;17.97;nan;-24317.63;5051472;28;20206;-59
2022/06/25 01:36:57;;;;;;;5.93;4.10;;;;;;;18.13;nan;-24321.81;5051329;28;20638;-60
2022/06/25 01:39:22;;;;;;;5.70;4.05;;;;;;;17.86;nan;-24314.44;5050697;28;20202;-61
2022/06/25 01:41:48;;;;;;;6.50;4.28;;;;;;;17.87;nan;-24314.72;5051470;28;20187;-58
2022/06/25 01:44:13;;;;;;;7.72;4.72;;;;;;;17.94;nan;-24316.66;5051457;28;20175;-60
2022/06/25 01:46:38;;;;;;;7.88;4.03;;;;;;;17.84;nan;-24314.00;5051603;28;20186;-58
2022/06/25 01:49:04;;;;;;;6.07;4.05;;;;;;;18.40;nan;-24329.47;5050749;28;20182;-58
2022/06/25 01:51:29;;;;;;;6.70;4.38;;;;;;;18.01;nan;-24318.75;5049863;28;20233;-59
2022/06/25 01:53:55;;;;;;;6.78;4.55;;;;;;;18.15;nan;-24322.38;5049985;28;20601;-59
2022/06/25 01:56:20;;;;;;;9.30;4.60;;;;;;;17.81;nan;-24313.03;5050819;28;20253;-58
2022/06/25 01:58:46;;;;;;;6.43;4.68;;;;;;;18.05;nan;-24319.88;5050371;28;20247;-58
2022/06/25 02:01:12;;;;;;;6.18;4.30;;;;;;;18.15;nan;-24322.53;5050670;28;20275;-59
2022/06/25 02:03:38;;;;;;;7.00;4.60;;;;;;;18.03;nan;-24319.19;5050530;28;20189;-60
2022/06/25 02:06:03;;;;;;;7.88;4.22;;;;;;;17.74;nan;-24311.09;5050330;28;20178;-60
2022/06/25 02:08:34;;;;;;;5.63;4.13;;;;;;;17.84;nan;-24314.00;5051643;28;20654;-60
2022/06/25 02:11:02;;;;;;;7.80;4.20;;;;;;;17.97;nan;-24317.50;5049153;28;20186;-58
2022/06/25 02:13:28;;;;;;;6.45;4.30;;;;;;;18.22;nan;-24324.47;5049188;28;20210;-60
2022/06/25 02:15:54;;;;;;;6.15;4.30;;;;;;;15.26;nan;-24242.72;5049917;28;20194;-58
2022/06/25 02:18:20;;;;;;;5.57;4.15;;;;;;;17.96;nan;-24317.22;5050128;28;20539;-60
2022/06/25 02:20:45;;;;;;;7.35;4.15;;;;;;;17.85;nan;-24314.28;5051707;28;20182;-58
2022/06/25 02:23:13;;;;;;;7.15;4.22;;;;;;;18.09;nan;-24320.84;5049933;28;20178;-60
2022/06/25 02:25:39;;;;;;;7.68;4.72;;;;;;;18.28;nan;-24326.13;5051238;28;20765;-61
2022/06/25 02:28:04;;;;;;;7.78;4.50;;;;;;;17.93;nan;-24316.53;5050318;28;20642;-57
2022/06/25 02:30:30;;;;;;;6.10;4.25;;;;;;;18.18;nan;-24323.22;5050197;28;20193;-60
2022/06/25 02:32:56;;;;;;;8.07;4.53;;;;;;;18.17;nan;-24322.94;5050150;28;20293;-58
2022/06/25 02:35:21;;;;;;;6.78;4.55;;;;;;;18.11;nan;-24321.41;5050090;28;20635;-59
2022/06/25 02:37:47;;;;;;;7.40;4.45;;;;;;;18.13;nan;-24321.97;5050632;28;20190;-59
2022/06/25 02:40:12;;;;;;;5.72;3.90;;;;;;;18.13;nan;-24321.97;5050330;28;20640;-60
2022/06/25 02:42:40;;;;;;;6.47;4.13;;;;;;;17.97;nan;-24317.50;5050730;28;20711;-60
2022/06/25 02:45:07;;;;;;;7.80;4.07;;;;;;;17.93;nan;-24316.53;5049401;28;20186;-58
2022/06/25 02:47:33;;;;;;;6.10;3.97;;;;;;;18.03;nan;-24319.19;5050805;28;20185;-61
2022/06/25 02:50:00;;;;;;;5.85;3.65;;;;;;;18.25;nan;-24325.31;5050126;28;20269;-56
2022/06/25 02:52:26;;;;;;;6.57;3.88;;;;;;;18.42;nan;-24330.03;5051355;28;20177;-57
2022/06/25 02:54:52;;;;;;;6.45;4.38;;;;;;;18.46;nan;-24331.00;5049974;28;20198;-59
2022/06/25 03:00:03;;;;;;;5.00;3.75;;;;;;;;;;5047767;28;20193;-57
2022/06/25 03:02:28;;;;;;;7.35;4.43;;;;;;;19.28;nan;-24353.72;5049858;28;20222;-60
2022/06/25 03:04:54;;;;;;;6.50;3.83;;;;;;;19.44;nan;-24358.03;5050117;28;20201;-59
2022/06/25 03:07:20;;;;;;;6.35;3.63;;;;;;;19.88;nan;-24370.13;5050463;28;20183;-56
2022/06/25 03:09:45;;;;;;;5.70;3.65;;;;;;;19.77;nan;-24367.06;5050960;28;20232;-59
2022/06/25 03:12:12;;;;;;;5.35;3.58;;;;;;;19.62;nan;-24362.91;5050498;28;20265;-59
2022/06/25 03:14:37;;;;;;;6.18;4.03;;;;;;;19.44;nan;-24357.88;5050353;28;20190;-58
2022/06/25 03:17:03;;;;;;;5.88;3.65;;;;;;;19.42;nan;-24357.47;5050994;28;20190;-58
2022/06/25 03:19:29;;;;;;;5.72;3.80;;;;;;;20.55;nan;-24388.59;5050911;28;20634;-58
2022/06/25 03:21:54;;;;;;;7.15;4.30;;;;;;;22.13;nan;-24431.72;5050482;28;20191;-60
2022/06/25 03:24:20;;;;;;;5.80;3.65;;;;;;;23.46;nan;-24468.06;5049986;28;20170;-60
2022/06/25 03:26:45;;;;;;;6.55;3.65;;;;;;;24.12;nan;-24486.16;5055804;28;20228;-59
2022/06/25 03:29:11;;;;;;;5.22;3.88;;;;;;;24.71;nan;-24502.16;5049423;28;20560;-59
2022/06/25 03:31:36;;;;;;;5.30;3.42;;;;;;;25.90;nan;-24534.63;5050855;28;20179;-60
2022/06/25 03:34:02;;;;;;;5.05;3.40;;;;;;;26.67;nan;-24555.50;5050204;28;20264;-59
2022/06/25 03:36:27;;;;;;;5.68;3.63;;;;;;;27.10;nan;-24567.16;5050254;28;20221;-57
2022/06/25 03:38:53;;;;;;;5.25;3.47;;;;;;;27.91;nan;-24589.09;5050432;28;20196;-58
2022/06/25 03:41:35;;;;;;;5.90;2.90;;;;;;;27.70;nan;-24583.47;5049723;28;20186;-61
2022/06/25 03:44:03;;;;;;;4.47;3.30;;;;;;;28.54;nan;-24606.22;5051465;28;20175;-59
2022/06/25 03:46:29;;;;;;;4.72;3.20;;;;;;;29.09;nan;-24620.97;5054498;28;20248;-58
2022/06/25 03:48:54;;;;;;;4.03;3.20;;;;;;;29.50;nan;-24632.19;5054365;28;20178;-60
2022/06/25 03:51:20;;;;;;;5.57;3.58;;;;;;;30.21;nan;-24651.41;5053008;28;20198;-59
2022/06/25 03:53:45;;;;;;;4.47;2.92;;;;;;;29.83;nan;-24641.03;5053042;28;20706;-62
2022/06/25 03:56:12;;;;;;;4.07;3.17;;;;;;;29.06;nan;-24620.28;5052663;28;20190;-59
2022/06/25 03:58:37;;;;;;;5.22;3.38;;;;;;;26.64;nan;-24554.69;5054601;28;20182;-60
2022/06/25 04:01:03;;;;;;;3.80;3.10;;;;;;;25.40;nan;-24521.16;5052765;28;20600;-60
2022/06/25 04:03:29;;;;;;;4.65;3.22;;;;;;;24.45;nan;-24495.25;5046598;28;22057;-61
2022/06/25 04:05:55;;;;;;;4.65;3.38;;;;;;;23.72;nan;-24475.38;5047558;28;20182;-62
2022/06/25 04:08:20;;;;;;;5.80;3.38;;;;;;;24.68;nan;-24501.47;5047514;28;20187;-60
2022/06/25 04:10:46;;;;;;;4.85;3.42;;;;;;;26.44;nan;-24549.34;5047783;28;20260;-59
2022/06/25 04:13:12;;;;;;;4.25;3.17;;;;;;;26.20;nan;-24542.88;5048596;28;20253;-61
2022/06/25 04:15:38;;;;;;;3.92;3.00;;;;;;;29.42;nan;-24630.13;5047985;28;20217;-57
2022/06/25 04:18:05;;;;;;;4.38;2.92;;;;;;;29.69;nan;-24637.34;5048102;28;20290;-59
2022/06/25 04:20:30;;;;;;;6.03;3.30;;;;;;;30.58;nan;-24661.34;5048281;28;20183;-63
2022/06/25 04:22:56;;;;;;;4.60;3.30;;;;;;;30.89;nan;-24669.53;5047196;28;20177;-60
2022/06/25 04:25:21;;;;;;;5.60;3.30;;;;;;;31.12;nan;-24675.91;5047571;28;20252;-63
2022/06/25 04:30:48;;;;;;;4.85;3.10;;;;;;;32.01;nan;-24699.84;5003206;28;20200;-62
2022/06/25 04:33:14;;;;;;;4.55;3.35;;;;;;;32.32;nan;-24708.13;5037364;28;20550;-60
2022/06/25 04:35:39;;;;;;;4.70;3.35;;;;;;;32.31;nan;-24707.72;5047661;28;20193;-61
2022/06/25 04:38:05;;;;;;;3.55;2.80;;;;;;;32.73;nan;-24719.00;5046857;28;20186;-62
2022/06/25 04:40:30;;;;;;;4.90;3.33;;;;;;;32.27;nan;-24706.78;5046845;28;20248;-58
2022/06/25 04:42:56;;;;;;;5.10;2.90;;;;;;;32.67;nan;-24717.38;5046954;28;20217;-60
2022/06/25 04:45:22;;;;;;;6.97;4.28;;;;;;;32.44;nan;-24711.38;5047693;28;20182;-62
2022/06/25 04:47:47;;;;;;;3.65;3.15;;;;;;;32.58;nan;-24715.06;5047180;28;20541;-60
2022/06/25 04:50:13;;;;;;;4.60;3.33;;;;;;;32.42;nan;-24710.84;5047353;28;20232;-62
2022/06/25 04:52:39;;;;;;;4.80;3.60;;;;;;;32.53;nan;-24713.56;5047130;28;20175;-62
2022/06/25 04:55:05;;;;;;;5.70;3.90;;;;;;;32.62;nan;-24716.13;5047036;28;20190;-64
2022/06/25 04:57:31;;;;;;;6.53;3.63;;;;;;;31.99;nan;-24699.16;5046796;28;20187;-61
2022/06/25 04:59:56;;;;;;;5.30;3.58;;;;;;;31.83;nan;-24694.81;5047339;28;20194;-61
2022/06/25 05:02:22;;;;;;;7.35;3.88;;;;;;;30.46;nan;-24658.09;5045564;28;20224;-62
2022/06/25 05:04:47;;;;;;;7.50;4.80;;;;;;;30.10;nan;-24648.28;5046272;28;20190;-64
2022/06/25 05:07:13;;;;;;;7.60;4.20;;;;;;;30.12;nan;-24648.81;5045500;28;20186;-64
2022/06/25 05:09:39;;;;;;;4.63;3.45;;;;;;;29.52;nan;-24632.72;5042580;28;20538;-62
2022/06/25 05:12:05;;;;;;;5.43;4.25;;;;;;;30.31;nan;-24654.00;5042018;28;20267;-60
2022/06/25 05:14:30;;;;;;;5.63;4.25;;;;;;;30.28;nan;-24653.31;5043154;28;20266;-63
2022/06/25 05:16:55;;;;;;;7.18;4.20;;;;;;;30.37;nan;-24655.50;5044782;28;20182;-60
2022/06/25 05:19:21;;;;;;;6.63;4.20;;;;;;;30.16;nan;-24649.91;5043568;28;20295;-60
2022/06/25 05:21:46;;;;;;;5.30;4.30;;;;;;;30.38;nan;-24655.91;5046721;28;20198;-63
2022/06/25 05:24:12;;;;;;;5.30;3.92;;;;;;;29.26;nan;-24625.63;5046169;28;20646;-60
2022/06/25 05:26:37;;;;;;;6.05;4.43;;;;;;;28.63;nan;-24608.53;5046447;28;20190;-65
2022/06/25 05:29:03;;;;;;;5.30;4.28;;;;;;;28.24;nan;-24598.00;5045573;28;20638;-61
2022/06/25 05:31:28;;;;;;;7.78;4.85;;;;;;;27.87;nan;-24588.00;5046429;28;20175;-61
2022/06/25 05:33:54;;;;;;;7.90;4.57;;;;;;;27.55;nan;-24579.38;5045744;28;20221;-64
2022/06/25 05:36:20;;;;;;;6.07;4.22;;;;;;;27.91;nan;-24589.25;5044782;28;20182;-63
2022/06/25 05:38:45;;;;;;;6.18;4.35;;;;;;;28.00;nan;-24591.69;5045942;28;20171;-62
2022/06/25 05:41:11;;;;;;;5.70;3.50;;;;;;;27.92;nan;-24589.50;5045250;28;20728;-63
2022/06/25 05:43:37;;;;;;;4.70;3.33;;;;;;;27.77;nan;-24585.25;5045112;28;20178;-61
2022/06/25 05:46:04;;;;;;;5.15;3.70;;;;;;;28.57;nan;-24607.03;5045379;28;20301;-61
2022/06/25 05:48:30;;;;;;;4.47;3.47;;;;;;;28.26;nan;-24598.53;5046311;28;20282;-61
2022/06/25 05:50:56;;;;;;;5.35;3.65;;;;;;;27.91;nan;-24589.09;5044725;28;20175;-62
2022/06/25 05:53:23;;;;;;;5.50;3.67;;;;;;;27.78;nan;-24585.69;5045046;28;20202;-64
2022/06/25 05:55:48;;;;;;;6.35;3.45;;;;;;;27.70;nan;-24583.34;5044033;28;20554;-64
2022/06/25 05:58:14;;;;;;;8.07;3.72;;;;;;;27.60;nan;-24580.75;5046356;28;20175;-61
2022/06/25 06:00:39;;;;;;;5.15;3.53;;;;;;;27.66;nan;-24582.38;5044630;28;20666;-63
2022/06/25 06:03:05;;;;;;;4.90;3.67;;;;;;;27.34;nan;-24573.75;5044878;28;20178;-63
2022/06/25 06:05:31;;;;;;;4.85;3.83;;;;;;;27.23;nan;-24570.88;5045514;28;20269;-63
2022/06/25 06:07:56;;;;;;;5.10;3.70;;;;;;;27.08;nan;-24566.75;5043344;28;20186;-62
2022/06/25 06:10:22;;;;;;;6.15;3.90;;;;;;;27.14;nan;-24568.28;5046409;28;20634;-63
2022/06/25 06:12:48;;;;;;;4.65;3.42;;;;;;;27.43;nan;-24576.06;5044842;28;20286;-61
2022/06/25 06:15:14;;;;;;;6.85;4.15;;;;;;;26.72;nan;-24557.03;5043299;28;20273;-62
2022/06/25 06:17:39;;;;;;;5.43;3.92;;;;;;;25.89;nan;-24534.50;5044802;28;20183;-60
2022/06/25 06:20:06;;;;;;;5.25;3.78;;;;;;;26.00;nan;-24537.38;5045284;28;20228;-61
2022/06/25 06:22:32;;;;;;;6.25;4.07;;;;;;;25.97;nan;-24536.41;5045245;28;20579;-62
2022/06/25 06:24:57;;;;;;;5.72;3.90;;;;;;;26.21;nan;-24543.16;5043279;28;20725;-61
2022/06/25 06:27:23;;;;;;;6.03;4.15;;;;;;;25.83;nan;-24532.69;5045721;28;20257;-61
2022/06/25 06:29:49;;;;;;;6.47;3.90;;;;;;;26.28;nan;-24545.06;5044882;28;20283;-62
2022/06/25 06:32:14;;;;;;;6.35;3.80;;;;;;;26.35;nan;-24547.00;5045089;28;20531;-64
2022/06/25 06:34:40;;;;;;;6.50;4.03;;;;;;;26.59;nan;-24553.44;5045327;28;20588;-60
2022/06/25 06:37:05;;;;;;;6.47;4.25;;;;;;;24.27;nan;-24490.16;5045288;28;20638;-64
2022/06/25 06:39:31;;;;;;;5.15;3.78;;;;;;;26.78;nan;-24558.66;5045534;28;20269;-64
2022/06/25 06:41:56;;;;;;;5.43;3.80;;;;;;;;;;5044091;28;20185;-64
2022/06/25 06:44:21;;;;;;;6.10;4.13;;;;;;;26.76;nan;-24557.97;5045101;28;20229;-63
2022/06/25 06:46:47;;;;;;;6.03;4.40;;;;;;;26.90;nan;-24561.69;5045260;28;20190;-63
2022/06/25 06:49:12;;;;;;;8.00;4.50;;;;;;;26.86;nan;-24560.59;5044210;28;20201;-60
2022/06/25 06:51:38;;;;;;;6.80;4.18;;;;;;;26.74;nan;-24557.44;5044622;28;20185;-64
2022/06/25 06:54:04;;;;;;;5.53;4.38;;;;;;;24.45;nan;-24495.13;5044455;28;20210;-64
2022/06/25 06:56:29;;;;;;;6.15;4.60;;;;;;;26.95;nan;-24563.19;5045587;28;20557;-61
2022/06/25 06:58:55;;;;;;;9.48;5.38;;;;;;;27.35;nan;-24574.03;5043599;28;20538;-63
2022/06/25 07:01:21;;;;;;;8.55;5.75;;;;;;;27.07;nan;-24566.47;5044009;28;20226;-60
2022/06/25 07:03:46;;;;;;;7.93;5.55;;;;;;;27.39;nan;-24575.13;5044458;28;20217;-63
2022/06/25 07:06:12;;;;;;;5.97;4.43;;;;;;;27.89;nan;-24588.56;5044081;28;20270;-63
2022/06/25 07:08:37;;;;;;;5.65;3.95;;;;;;;27.99;nan;-24591.44;5044083;28;20177;-61
2022/06/25 07:11:28;;;;;;;6.25;3.75;;;;;;;27.18;nan;-24569.38;5043699;28;20278;-64
2022/06/25 07:13:48;;;;;;;4.68;3.70;;;;;;;27.70;nan;-24583.47;5043090;28;20344;-62
2022/06/25 07:16:13;;;;;;;5.78;3.80;;;;;;;27.61;nan;-24581.00;5050899;28;20237;-61
2022/06/25 07:18:39;;;;;;;5.50;3.70;;;;;;;28.10;nan;-24594.31;5055298;28;20658;-60
2022/06/25 07:21:04;;;;;;;7.80;4.38;;;;;;;27.85;nan;-24587.44;5053861;28;20220;-61
2022/06/25 07:23:30;;;;;;;6.43;4.15;;;;;;;28.37;nan;-24601.56;5054994;28;20247;-60
2022/06/25 07:25:55;;;;;;;6.20;4.10;;;;;;;28.30;nan;-24599.66;5054000;28;20547;-59
2022/06/25 07:28:21;;;;;;;6.20;4.07;;;;;;;28.73;nan;-24611.28;5053282;28;20661;-59
2022/06/25 07:30:47;;;;;;;12.07;9.40;;;;;;;29.03;nan;-24619.34;5050209;28;20179;-63
2022/06/25 07:33:12;;;;;;;8.43;5.90;;;;;;;28.29;nan;-24599.38;5054294;28;20796;-61
2022/06/25 07:35:37;;;;;;;8.50;5.70;;;;;;;28.66;nan;-24609.34;5054474;28;20713;-63
2022/06/25 07:38:03;;;;;;;7.57;4.05;;;;;;;28.90;nan;-24616.06;5053797;28;20265;-63
2022/06/25 07:40:28;;;;;;;6.25;3.50;;;;;;;29.11;nan;-24621.53;5053501;28;20182;-61
2022/06/25 07:42:54;;;;;;;5.90;4.40;;;;;;;28.73;nan;-24611.41;5053452;28;20233;-62
2022/06/25 07:45:20;;;;;;;9.10;5.93;;;;;;;28.30;nan;-24599.78;5054107;28;20244;-62
2022/06/25 07:47:45;;;;;;;5.20;3.65;;;;;;;28.49;nan;-24604.97;5054058;28;20226;-62
2022/06/25 07:52:55;;;;;;;4.57;3.50;;;;;;;28.43;nan;-24603.19;5054591;28;20225;-62
2022/06/25 07:55:20;;;;;;;5.70;3.03;;;;;;;29.11;nan;-24621.53;5055291;28;20634;-62
2022/06/25 07:57:46;;;;;;;4.60;3.30;;;;;;;29.13;nan;-24622.06;5054618;28;20269;-62
2022/06/25 08:00:12;;;;;;;4.30;3.58;;;;;;;28.81;nan;-24613.59;5053111;28;20182;-63
2022/06/25 08:02:38;;;;;;;8.75;3.20;;;;;;;29.15;nan;-24622.75;5054560;28;20649;-61
2022/06/25 08:05:03;;;;;;;5.78;3.83;;;;;;;27.54;nan;-24579.09;5052356;28;20197;-64
2022/06/25 08:07:29;;;;;;;6.28;3.72;;;;;;;27.01;nan;-24564.69;5053443;28;20183;-60
2022/06/25 08:09:54;;;;;;;4.60;3.45;;;;;;;27.34;nan;-24573.75;5053559;28;20190;-63
2022/06/25 08:12:20;;;;;;;4.53;3.38;;;;;;;27.24;nan;-24571.16;5053506;28;20175;-60
2022/06/25 08:14:45;;;;;;;5.05;3.60;;;;;;;26.89;nan;-24561.41;5053336;28;20279;-65
2022/06/25 08:17:11;;;;;;;5.47;3.83;;;;;;;26.96;nan;-24563.47;5052652;28;20657;-60
2022/06/25 08:19:36;;;;;;;5.55;3.97;;;;;;;27.17;nan;-24569.22;5053630;28;20194;-62
2022/06/25 08:22:02;;;;;;;5.70;3.67;;;;;;;27.55;nan;-24579.38;5052361;28;20182;-64
2022/06/25 08:24:27;;;;;;;5.07;3.95;;;;;;;27.90;nan;-24588.97;5052402;28;20183;-63
2022/06/25 08:26:53;;;;;;;6.10;4.18;;;;;;;28.42;nan;-24602.94;5052437;28;20186;-60
2022/06/25 08:29:18;;;;;;;5.15;3.75;;;;;;;28.40;nan;-24602.50;5052778;28;20179;-62
2022/06/25 08:31:44;;;;;;;16.05;9.63;;;;;;;29.05;nan;-24619.88;5053829;28;20206;-63
2022/06/25 08:34:09;;;;;;;7.60;5.07;;;;;;;29.20;nan;-24623.97;5052391;28;20213;-61
2022/06/25 08:36:35;;;;;;;4.45;3.60;;;;;;;29.77;nan;-24639.53;5053007;28;20634;-64
2022/06/25 08:39:00;;;;;;;6.45;3.88;;;;;;;28.93;nan;-24616.75;5053024;28;20243;-65
2022/06/25 08:41:27;;;;;;;6.40;3.80;;;;;;;29.36;nan;-24628.34;5051531;28;20239;-62
2022/06/25 08:43:52;;;;;;;7.32;4.10;;;;;;;29.45;nan;-24630.81;5052352;28;20232;-66
2022/06/25 08:46:19;;;;;;;5.55;3.80;;;;;;;29.37;nan;-24628.75;5052480;28;20190;-63
2022/06/25 08:48:49;;;;;;;6.65;3.72;;;;;;;29.28;nan;-24626.16;5052875;28;20190;-65
2022/06/25 08:51:18;;;;;;;5.47;3.72;;;;;;;29.04;nan;-24619.75;5051997;28;20553;-61
2022/06/25 08:53:44;;;;;;;6.30;3.97;;;;;;;28.89;nan;-24615.78;5050566;28;20213;-62
2022/06/25 08:56:09;;;;;;;6.25;4.38;;;;;;;28.45;nan;-24603.88;5052050;28;20175;-60
2022/06/25 08:58:35;;;;;;;5.68;3.70;;;;;;;28.32;nan;-24600.19;5052214;28;20265;-62
2022/06/25 09:01:01;;;;;;;7.13;4.00;;;;;;;28.58;nan;-24607.16;5051471;28;20726;-62
2022/06/25 09:03:26;;;;;;;5.97;3.63;;;;;;;28.82;nan;-24613.88;5051912;28;20258;-62
2022/06/25 09:05:52;;;;;;;4.82;3.65;;;;;;;29.21;nan;-24624.25;5052471;28;20190;-60
2022/06/25 09:08:17;;;;;;;4.85;3.65;;;;;;;28.72;nan;-24611.00;5051685;28;20210;-64
2022/06/25 09:10:53;;;;;;;5.63;3.80;;;;;;;28.74;nan;-24611.69;5051896;28;20182;-60
2022/06/25 09:13:22;;;;;;;6.47;3.95;;;;;;;28.93;nan;-24616.88;5051100;28;20209;-62
2022/06/25 09:15:47;;;;;;;8.07;3.65;;;;;;;29.66;nan;-24636.53;5049889;28;20289;-63
2022/06/25 09:18:15;;;;;;;5.28;3.72;;;;;;;29.69;nan;-24637.34;5051128;28;20552;-62
2022/06/25 09:21:07;;;;;;;4.70;3.78;;;;;;;29.90;nan;-24642.81;5052330;28;20209;-61
2022/06/25 09:23:46;;;;;;;4.63;3.50;;;;;;;29.95;nan;-24644.31;5051510;28;20182;-64
2022/06/25 09:26:12;;;;;;;5.38;4.03;;;;;;;29.18;nan;-24623.56;5051838;28;20181;-61
2022/06/25 09:28:41;;;;;;;5.72;3.83;;;;;;;29.11;nan;-24621.66;5052151;28;20182;-63
2022/06/25 09:31:07;;;;;;;5.55;3.40;;;;;;;29.55;nan;-24633.53;5050723;28;20202;-63
2022/06/25 09:33:34;;;;;;;4.60;3.40;;;;;;;29.26;nan;-24625.63;5052072;28;20206;-60
2022/06/25 09:36:00;;;;;;;4.53;3.40;;;;;;;28.38;nan;-24601.84;5050964;28;20190;-63
2022/06/25 09:38:26;;;;;;;4.10;3.33;;;;;;;27.89;nan;-24588.56;5051548;28;20209;-62
2022/06/25 09:40:53;;;;;;;6.93;3.92;;;;;;;28.06;nan;-24593.34;5050762;28;20733;-61
2022/06/25 09:43:37;;;;;;;5.20;3.53;;;;;;;27.96;nan;-24590.47;5051801;28;20201;-60
2022/06/25 09:46:05;;;;;;;5.05;3.35;;;;;;;28.35;nan;-24601.16;5050940;28;20668;-62
2022/06/25 09:48:33;;;;;;;4.03;3.30;;;;;;;28.72;nan;-24611.00;5049739;28;20587;-63
2022/06/25 09:51:19;;;;;;;4.95;3.40;;;;;;;28.97;nan;-24617.97;5051279;28;20340;-63
2022/06/25 09:53:50;;;;;;;5.70;3.60;;;;;;;28.75;nan;-24611.97;5051296;28;20289;-65
2022/06/25 09:56:27;;;;;;;4.50;3.67;;;;;;;28.69;nan;-24610.31;5050753;28;20183;-62
2022/06/25 09:58:56;;;;;;;4.82;3.70;;;;;;;29.07;nan;-24620.44;5048013;28;20190;-62
2022/06/25 10:01:27;;;;;;;4.63;3.30;;;;;;;29.52;nan;-24632.59;5050831;28;20220;-63
2022/06/25 10:03:53;;;;;;;5.28;3.70;;;;;;;29.62;nan;-24635.31;5050752;28;20197;-60
2022/06/25 10:06:21;;;;;;;5.05;3.60;;;;;;;29.77;nan;-24639.53;5050551;28;20254;-60
2022/06/25 10:08:53;;;;;;;5.95;3.45;;;;;;;29.99;nan;-24645.28;5047112;28;20178;-60
2022/06/25 10:11:21;;;;;;;5.35;3.58;;;;;;;30.29;nan;-24653.44;5050961;28;20186;-60
2022/06/25 10:13:48;;;;;;;5.65;3.78;;;;;;;30.46;nan;-24658.09;5045989;28;20330;-61
2022/06/25 10:16:18;;;;;;;6.07;3.97;;;;;;;30.73;nan;-24665.16;5050493;28;20583;-63
2022/06/25 10:18:44;;;;;;;5.38;3.65;;;;;;;30.82;nan;-24667.63;5050818;28;20696;-64
2022/06/25 10:21:12;;;;;;;5.32;3.85;;;;;;;30.68;nan;-24663.94;5050302;28;20186;-60
2022/06/25 10:23:39;;;;;;;5.18;3.55;;;;;;;31.00;nan;-24672.53;5051291;28;20228;-63
2022/06/25 10:26:05;;;;;;;6.03;3.72;;;;;;;30.94;nan;-24671.03;5050828;28;20186;-64
2022/06/25 10:28:34;;;;;;;5.57;3.67;;;;;;;30.79;nan;-24666.81;5047470;28;20621;-63
2022/06/25 10:31:04;;;;;;;4.88;3.50;;;;;;;31.36;nan;-24682.19;5050662;28;20722;-63
2022/06/25 10:33:36;;;;;;;6.15;3.55;;;;;;;31.42;nan;-24683.94;5051490;28;20727;-64
2022/06/25 10:36:06;;;;;;;5.10;3.67;;;;;;;31.46;nan;-24685.03;5050758;28;20691;-61
2022/06/25 10:38:31;;;;;;;4.38;3.63;;;;;;;31.64;nan;-24689.78;5048978;28;20202;-63
2022/06/25 10:44:19;;;;;;;6.20;3.95;;;;;;;31.79;nan;-24693.75;5027849;28;20191;-63
2022/06/25 10:46:45;;;;;;;4.88;3.40;;;;;;;32.00;nan;-24699.44;5045500;28;20194;-62
2022/06/25 10:49:30;;;;;;;4.55;3.33;;;;;;;31.46;nan;-24684.91;5049962;28;20177;-61
2022/06/25 10:51:55;;;;;;;4.95;3.50;;;;;;;32.39;nan;-24710.03;5047587;28;20200;-63
2022/06/25 10:54:24;;;;;;;4.38;3.50;;;;;;;32.53;nan;-24713.56;5050546;28;20787;-63
2022/06/25 10:57:00;;;;;;;5.35;3.90;;;;;;;32.66;nan;-24717.22;5050641;28;20178;-62
2022/06/25 10:59:32;;;;;;;4.30;3.38;;;;;;;33.03;nan;-24727.13;5044084;28;20209;-63
2022/06/25 11:01:59;;;;;;;5.25;3.50;;;;;;;32.70;nan;-24718.31;5051012;28;20228;-60
2022/06/25 11:04:26;;;;;;;4.70;3.42;;;;;;;32.77;nan;-24720.06;5050674;28;20166;-62
2022/06/25 11:06:52;;;;;;;4.30;3.38;;;;;;;32.00;nan;-24699.44;5049991;28;20194;-62
2022/06/25 11:09:19;;;;;;;4.85;3.22;;;;;;;32.20;nan;-24704.75;5051066;28;20178;-61
2022/06/25 11:11:48;;;;;;;6.35;4.15;;;;;;;32.23;nan;-24705.69;5050570;28;20210;-61
2022/06/25 11:14:17;;;;;;;4.63;3.35;;;;;;;32.04;nan;-24700.53;5049883;28;20226;-63
2022/06/25 11:16:43;;;;;;;5.00;3.70;;;;;;;31.87;nan;-24695.91;5051136;28;20190;-59
2022/06/25 11:19:09;;;;;;;4.25;3.20;;;;;;;32.21;nan;-24705.16;5049880;28;20192;-61
2022/06/25 11:21:44;;;;;;;4.90;3.30;;;;;;;32.32;nan;-24708.13;5051567;28;20567;-61
2022/06/25 11:24:20;;;;;;;4.55;3.60;;;;;;;32.82;nan;-24721.56;5050947;28;20247;-63
2022/06/25 11:29:37;;;;;;;4.80;3.67;;;;;;;32.51;nan;-24713.16;5044678;28;20184;-63
2022/06/25 11:32:03;;;;;;;4.32;3.60;;;;;;;31.51;nan;-24686.41;5049577;28;20178;-63
2022/06/25 11:34:29;;;;;;;8.10;3.60;;;;;;;30.87;nan;-24668.97;5048741;28;20210;-61
2022/06/25 11:37:06;;;;;;;5.70;4.07;;;;;;;31.03;nan;-24673.47;5050561;28;20186;-64
2022/06/25 11:39:33;;;;;;;4.30;3.53;;;;;;;31.15;nan;-24676.59;5048041;28;20232;-63
2022/06/25 11:41:59;;;;;;;4.30;3.35;;;;;;;31.66;nan;-24690.34;5049818;28;20253;-63
2022/06/25 11:44:26;;;;;;;6.65;4.00;;;;;;;32.03;nan;-24700.25;5050574;28;20170;-63
2022/06/25 11:46:52;;;;;;;5.85;3.60;;;;;;;31.85;nan;-24695.38;5050388;28;20190;-61
2022/06/25 11:49:20;;;;;;;6.13;3.78;;;;;;;32.00;nan;-24699.56;5049816;28;20192;-62
2022/06/25 11:51:48;;;;;;;4.70;3.50;;;;;;;32.29;nan;-24707.19;5049972;28;20560;-60
2022/06/25 11:54:16;;;;;;;5.38;3.40;;;;;;;32.38;nan;-24709.63;5049443;28;20206;-60
2022/06/25 11:56:53;;;;;;;5.45;3.70;;;;;;;32.29;nan;-24707.31;5049988;28;20197;-61